createdAt,value
2022-09-10T00:00:53.113Z,14.60
2022-09-10T00:02:49.891Z,14.60
2022-09-10T00:03:49.844Z,14.58
2022-09-10T00:04:49.816Z,14.55
2022-09-10T00:05:49.826Z,14.55
2022-09-10T00:06:49.795Z,14.54
2022-09-10T00:07:49.781Z,14.51
2022-09-10T00:08:49.766Z,14.50
2022-09-10T00:09:49.756Z,14.48
2022-09-10T00:10:49.749Z,14.47
2022-09-10T00:11:49.756Z,14.45
2022-09-10T00:12:49.726Z,14.44
2022-09-10T00:13:49.715Z,14.43
2022-09-10T00:14:49.706Z,14.43
2022-09-10T00:15:49.790Z,14.40
2022-09-10T00:16:49.687Z,14.40
2022-09-10T00:17:49.687Z,14.40
2022-09-10T00:18:49.657Z,14.41
2022-09-10T00:19:49.647Z,14.43
2022-09-10T00:20:49.637Z,14.37
2022-09-10T00:21:49.627Z,14.35
2022-09-10T00:22:49.617Z,14.36
2022-09-10T00:23:49.621Z,14.35
2022-09-10T00:24:49.597Z,14.33
2022-09-10T00:25:49.587Z,14.32
2022-09-10T00:26:49.569Z,14.30
2022-09-10T00:27:49.558Z,14.32
2022-09-10T00:28:49.575Z,14.30
2022-09-10T00:29:49.538Z,14.32
2022-09-10T00:30:49.527Z,14.35
2022-09-10T00:31:49.517Z,14.36
2022-09-10T00:32:49.508Z,14.36
2022-09-10T00:33:49.487Z,14.35
2022-09-10T00:34:49.498Z,14.35
2022-09-10T00:35:49.477Z,14.36
2022-09-10T00:36:49.466Z,14.36
2022-09-10T00:37:49.448Z,14.36
2022-09-10T00:38:49.438Z,14.35
2022-09-10T00:39:49.497Z,14.36
2022-09-10T00:40:49.417Z,14.37
2022-09-10T00:41:49.398Z,14.37
2022-09-10T00:42:49.398Z,14.36
2022-09-10T00:43:49.378Z,14.37
2022-09-10T00:44:49.368Z,14.36
2022-09-10T00:45:49.449Z,14.35
2022-09-10T00:46:49.348Z,14.36
2022-09-10T00:47:49.329Z,14.35
2022-09-10T00:48:49.329Z,14.35
2022-09-10T00:49:49.309Z,14.35
2022-09-10T00:50:49.348Z,14.35
2022-09-10T00:51:49.288Z,14.35
2022-09-10T00:52:49.279Z,14.33
2022-09-10T00:53:49.268Z,14.33
2022-09-10T00:54:49.278Z,14.33
2022-09-10T00:55:49.280Z,14.30
2022-09-10T00:56:49.257Z,14.30
2022-09-10T00:57:49.219Z,14.30
2022-09-10T00:58:49.223Z,14.30
2022-09-10T00:59:49.199Z,14.29
2022-09-10T01:00:49.216Z,14.29
2022-09-10T01:01:49.297Z,14.28
2022-09-10T01:02:49.169Z,14.26
2022-09-10T01:03:49.157Z,14.28
2022-09-10T01:04:49.147Z,14.30
2022-09-10T01:05:49.129Z,14.30
2022-09-10T01:06:49.120Z,14.32
2022-09-10T01:07:49.128Z,14.35
2022-09-10T01:08:49.101Z,14.36
2022-09-10T01:09:49.089Z,14.40
2022-09-10T01:10:49.079Z,14.43
2022-09-10T01:11:49.068Z,14.43
2022-09-10T01:12:49.081Z,14.45
2022-09-10T01:13:49.041Z,14.47
2022-09-10T01:14:49.038Z,14.50
2022-09-10T01:15:49.028Z,14.50
2022-09-10T01:16:49.010Z,14.54
2022-09-10T01:17:49.000Z,14.54
2022-09-10T01:18:49.000Z,14.55
2022-09-10T01:19:48.971Z,14.59
2022-09-10T01:20:48.970Z,14.60
2022-09-10T01:21:48.960Z,14.60
2022-09-10T01:22:48.941Z,14.59
2022-09-10T01:23:48.951Z,14.60
2022-09-10T01:24:48.920Z,14.60
2022-09-10T01:25:48.909Z,14.59
2022-09-10T01:26:48.901Z,14.60
2022-09-10T01:27:48.893Z,14.59
2022-09-10T01:28:48.888Z,14.60
2022-09-10T01:29:48.881Z,14.59
2022-09-10T01:30:48.851Z,14.59
2022-09-10T01:31:48.932Z,14.59
2022-09-10T01:32:48.835Z,14.60
2022-09-10T01:33:48.820Z,14.59
2022-09-10T01:34:48.832Z,14.59
2022-09-10T01:35:48.791Z,14.59
2022-09-10T01:36:48.781Z,14.59
2022-09-10T01:37:48.783Z,14.59
2022-09-10T01:38:48.762Z,14.59
2022-09-10T01:39:48.769Z,14.58
2022-09-10T01:40:48.760Z,14.54
2022-09-10T01:41:48.732Z,14.54
2022-09-10T01:42:48.721Z,14.50
2022-09-10T01:43:48.702Z,14.47
2022-09-10T01:44:48.700Z,14.45
2022-09-10T01:45:48.735Z,14.43
2022-09-10T01:46:48.672Z,14.44
2022-09-10T01:47:48.662Z,14.47
2022-09-10T01:48:48.652Z,14.45
2022-09-10T01:49:48.642Z,14.45
2022-09-10T01:50:48.640Z,14.45
2022-09-10T01:51:48.632Z,14.44
2022-09-10T01:52:48.602Z,14.43
2022-09-10T01:53:48.593Z,14.43
2022-09-10T01:54:48.583Z,14.41
2022-09-10T01:55:48.572Z,14.40
2022-09-10T01:56:48.603Z,14.40
2022-09-10T01:57:48.553Z,14.36
2022-09-10T01:58:48.542Z,14.33
2022-09-10T01:59:48.523Z,14.33
2022-09-10T02:00:48.546Z,14.35
2022-09-10T02:01:48.569Z,14.33
2022-09-10T02:02:48.522Z,14.35
2022-09-10T02:03:48.485Z,14.35
2022-09-10T02:04:48.473Z,14.35
2022-09-10T02:05:48.464Z,14.36
2022-09-10T02:06:48.454Z,14.37
2022-09-10T02:07:48.483Z,14.37
2022-09-10T02:08:48.432Z,14.37
2022-09-10T02:09:48.413Z,14.36
2022-09-10T02:10:48.403Z,14.35
2022-09-10T02:11:48.394Z,14.35
2022-09-10T02:12:48.384Z,14.36
2022-09-10T02:13:48.394Z,14.40
2022-09-10T02:14:48.364Z,14.40
2022-09-10T02:15:48.375Z,14.40
2022-09-10T02:16:48.363Z,14.41
2022-09-10T02:17:48.325Z,14.43
2022-09-10T02:18:48.322Z,14.43
2022-09-10T02:19:48.324Z,14.44
2022-09-10T02:20:48.295Z,14.47
2022-09-10T02:21:48.283Z,14.48
2022-09-10T02:22:48.274Z,14.48
2022-09-10T02:23:48.255Z,14.50
2022-09-10T02:24:48.245Z,14.51
2022-09-10T02:25:48.273Z,14.54
2022-09-10T02:26:48.224Z,14.51
2022-09-10T02:27:48.214Z,14.51
2022-09-10T02:28:48.204Z,14.51
2022-09-10T02:29:48.195Z,14.51
2022-09-10T02:30:48.184Z,14.54
2022-09-10T02:31:48.265Z,14.54
2022-09-10T02:32:48.167Z,14.55
2022-09-10T02:33:48.145Z,14.59
2022-09-10T02:34:48.146Z,14.59
2022-09-10T02:35:48.126Z,14.62
2022-09-10T02:36:48.115Z,14.62
2022-09-10T02:37:48.125Z,14.63
2022-09-10T02:38:48.095Z,14.63
2022-09-10T02:39:48.131Z,14.63
2022-09-10T02:40:48.073Z,14.65
2022-09-10T02:41:48.071Z,14.65
2022-09-10T02:42:48.047Z,14.68
2022-09-10T02:43:48.056Z,14.69
2022-09-10T02:44:48.025Z,14.68
2022-09-10T02:45:48.151Z,14.72
2022-09-10T02:46:48.005Z,14.70
2022-09-10T02:47:47.986Z,14.70
2022-09-10T02:48:47.976Z,14.72
2022-09-10T02:49:47.993Z,14.73
2022-09-10T02:50:47.963Z,14.77
2022-09-10T02:51:47.946Z,14.78
2022-09-10T02:52:47.936Z,14.79
2022-09-10T02:53:47.926Z,14.79
2022-09-10T02:54:48.004Z,14.82
2022-09-10T02:55:47.937Z,14.82
2022-09-10T02:56:47.897Z,14.84
2022-09-10T02:57:47.877Z,14.84
2022-09-10T02:58:47.875Z,14.84
2022-09-10T02:59:47.857Z,14.84
2022-09-10T03:00:47.870Z,14.82
2022-09-10T03:01:47.883Z,14.84
2022-09-10T03:02:47.826Z,14.85
2022-09-10T03:03:47.815Z,14.88
2022-09-10T03:04:47.836Z,14.86
2022-09-10T03:05:47.787Z,14.88
2022-09-10T03:06:47.795Z,14.88
2022-09-10T03:07:47.791Z,14.88
2022-09-10T03:08:47.758Z,14.86
2022-09-10T03:09:47.747Z,14.88
2022-09-10T03:10:47.755Z,14.88
2022-09-10T03:11:47.737Z,14.86
2022-09-10T03:12:47.717Z,14.88
2022-09-10T03:13:47.747Z,14.89
2022-09-10T03:14:47.695Z,14.86
2022-09-10T03:15:47.681Z,14.89
2022-09-10T03:16:47.670Z,14.89
2022-09-10T03:17:47.663Z,14.89
2022-09-10T03:18:47.662Z,14.89
2022-09-10T03:19:47.660Z,14.89
2022-09-10T03:20:47.654Z,14.89
2022-09-10T03:21:47.735Z,14.88
2022-09-10T03:22:47.616Z,14.89
2022-09-10T03:23:48.992Z,14.91
2022-09-10T03:24:47.618Z,14.89
2022-09-10T03:25:49.835Z,14.89
2022-09-10T03:26:47.563Z,14.91
2022-09-10T03:27:47.562Z,14.89
2022-09-10T03:28:47.538Z,14.91
2022-09-10T03:29:47.527Z,14.91
2022-09-10T03:30:47.508Z,14.91
2022-09-10T03:31:47.551Z,14.91
2022-09-10T03:32:47.489Z,14.92
2022-09-10T03:33:47.489Z,14.94
2022-09-10T03:34:47.466Z,14.96
2022-09-10T03:35:47.467Z,14.97
2022-09-10T03:36:47.471Z,14.97
2022-09-10T03:37:47.469Z,14.97
2022-09-10T03:38:47.419Z,14.99
2022-09-10T03:39:47.443Z,14.99
2022-09-10T03:40:47.402Z,14.99
2022-09-10T03:41:47.389Z,14.99
2022-09-10T03:42:47.381Z,15.00
2022-09-10T03:43:47.390Z,15.00
2022-09-10T03:44:47.350Z,15.00
2022-09-10T03:45:47.394Z,15.02
2022-09-10T03:46:47.331Z,15.00
2022-09-10T03:47:47.321Z,15.00
2022-09-10T03:48:48.568Z,15.02
2022-09-10T03:49:47.299Z,15.03
2022-09-10T03:50:47.280Z,15.03
2022-09-10T03:51:47.280Z,15.03
2022-09-10T03:52:47.261Z,15.02
2022-09-10T03:53:47.259Z,15.06
2022-09-10T03:54:47.260Z,15.06
2022-09-10T03:55:47.231Z,15.04
2022-09-10T03:56:47.220Z,15.06
2022-09-10T03:57:47.210Z,15.04
2022-09-10T03:58:47.200Z,15.07
2022-09-10T03:59:47.190Z,15.06
2022-09-10T04:00:47.232Z,15.04
2022-09-10T04:01:47.241Z,15.06
2022-09-10T04:02:47.150Z,15.04
2022-09-10T04:03:47.150Z,15.04
2022-09-10T04:04:47.131Z,15.03
2022-09-10T04:05:47.121Z,15.04
2022-09-10T04:06:47.125Z,15.04
2022-09-10T04:07:47.121Z,15.04
2022-09-10T04:08:47.093Z,15.04
2022-09-10T04:09:47.081Z,15.06
2022-09-10T04:10:47.073Z,15.06
2022-09-10T04:11:47.083Z,15.06
2022-09-10T04:12:47.043Z,15.04
2022-09-10T04:13:47.032Z,15.03
2022-09-10T04:14:47.011Z,15.03
2022-09-10T04:15:47.014Z,15.02
2022-09-10T04:16:47.020Z,15.00
2022-09-10T04:17:47.032Z,15.02
2022-09-10T04:18:46.971Z,15.02
2022-09-10T04:19:46.962Z,15.00
2022-09-10T04:20:46.953Z,15.00
2022-09-10T04:21:46.943Z,15.02
2022-09-10T04:22:46.923Z,15.03
2022-09-10T04:23:46.942Z,15.02
2022-09-10T04:24:46.922Z,15.02
2022-09-10T04:25:46.900Z,15.02
2022-09-10T04:26:46.884Z,15.03
2022-09-10T04:27:46.872Z,15.03
2022-09-10T04:28:46.863Z,15.03
2022-09-10T04:29:46.873Z,15.03
2022-09-10T04:30:46.842Z,15.00
2022-09-10T04:31:46.923Z,15.00
2022-09-10T04:32:46.822Z,15.00
2022-09-10T04:33:46.812Z,14.97
2022-09-10T04:34:46.814Z,14.99
2022-09-10T04:35:46.791Z,14.99
2022-09-10T04:36:46.773Z,14.97
2022-09-10T04:37:46.781Z,14.96
2022-09-10T04:38:46.751Z,14.99
2022-09-10T04:39:46.761Z,14.97
2022-09-10T04:40:46.744Z,14.97
2022-09-10T04:41:46.723Z,14.96
2022-09-10T04:42:46.703Z,14.94
2022-09-10T04:43:46.693Z,14.96
2022-09-10T04:44:46.683Z,14.99
2022-09-10T04:45:46.724Z,14.96
2022-09-10T04:46:46.685Z,14.94
2022-09-10T04:47:46.653Z,14.92
2022-09-10T04:48:46.635Z,14.91
2022-09-10T04:49:46.632Z,14.92
2022-09-10T04:50:59.346Z,14.94
2022-09-10T04:51:47.652Z,14.92
2022-09-10T04:52:46.613Z,14.94
2022-09-10T04:53:46.584Z,14.92
2022-09-10T04:54:46.574Z,14.94
2022-09-10T04:55:46.565Z,14.94
2022-09-10T04:56:46.554Z,14.94
2022-09-10T04:57:46.564Z,14.94
2022-09-10T04:58:46.825Z,14.94
2022-09-10T04:59:46.515Z,14.94
2022-09-10T05:00:46.565Z,14.94
2022-09-10T05:01:46.494Z,14.94
2022-09-10T05:02:46.476Z,14.94
2022-09-10T05:03:46.485Z,14.92
2022-09-10T05:04:46.455Z,14.94
2022-09-10T05:05:46.446Z,14.97
2022-09-10T05:06:46.435Z,14.97
2022-09-10T05:07:46.425Z,14.99
2022-09-10T05:08:46.436Z,14.99
2022-09-10T05:09:46.405Z,14.97
2022-09-10T05:10:46.385Z,14.99
2022-09-10T05:11:46.386Z,15.00
2022-09-10T05:12:46.371Z,14.99
2022-09-10T05:13:46.367Z,14.97
2022-09-10T05:14:46.375Z,14.99
2022-09-10T05:15:46.338Z,15.00
2022-09-10T05:16:46.420Z,14.99
2022-09-10T05:17:46.318Z,15.00
2022-09-10T05:18:46.305Z,15.00
2022-09-10T05:19:46.306Z,14.99
2022-09-10T05:20:46.307Z,15.03
2022-09-10T05:21:46.265Z,15.03
2022-09-10T05:22:46.266Z,15.02
2022-09-10T05:23:46.246Z,15.03
2022-09-10T05:24:46.237Z,15.00
2022-09-10T05:25:46.226Z,14.99
2022-09-10T05:26:46.234Z,14.97
2022-09-10T05:27:46.206Z,14.97
2022-09-10T05:28:46.188Z,14.99
2022-09-10T05:29:46.185Z,14.97
2022-09-10T05:30:50.845Z,14.94
2022-09-10T05:31:47.216Z,14.92
2022-09-10T05:32:46.147Z,14.94
2022-09-10T05:33:46.137Z,14.91
2022-09-10T05:34:46.125Z,14.86
2022-09-10T05:35:46.117Z,14.84
2022-09-10T05:36:46.099Z,14.85
2022-09-10T05:37:46.116Z,14.85
2022-09-10T05:38:46.281Z,14.85
2022-09-10T05:39:46.126Z,14.84
2022-09-10T05:40:46.058Z,14.79
2022-09-10T05:41:46.047Z,14.78
2022-09-10T05:42:46.037Z,14.79
2022-09-10T05:43:46.049Z,14.79
2022-09-10T05:44:46.007Z,14.79
2022-09-10T05:45:46.048Z,14.81
2022-09-10T05:46:45.988Z,14.82
2022-09-10T05:47:45.978Z,14.78
2022-09-10T05:48:46.216Z,14.78
2022-09-10T05:49:45.977Z,14.81
2022-09-10T05:50:45.948Z,14.78
2022-09-10T05:51:45.938Z,14.81
2022-09-10T05:52:45.917Z,14.81
2022-09-10T05:53:45.928Z,14.81
2022-09-10T05:54:45.899Z,14.84
2022-09-10T05:55:45.909Z,14.81
2022-09-10T05:56:45.878Z,14.84
2022-09-10T05:57:45.868Z,14.86
2022-09-10T05:58:45.849Z,14.86
2022-09-10T05:59:45.858Z,14.86
2022-09-10T06:00:45.848Z,14.89
2022-09-10T06:01:45.870Z,14.86
2022-09-10T06:02:52.899Z,14.84
2022-09-10T06:03:45.804Z,14.85
2022-09-10T06:04:46.493Z,14.88
2022-09-10T06:05:46.493Z,14.88
2022-09-10T06:06:45.792Z,14.86
2022-09-10T06:07:45.764Z,14.89
2022-09-10T06:08:45.743Z,14.89
2022-09-10T06:09:45.733Z,14.89
2022-09-10T06:10:45.723Z,14.91
2022-09-10T06:11:45.723Z,14.92
2022-09-10T06:12:45.713Z,14.94
2022-09-10T06:13:45.691Z,14.96
2022-09-10T06:14:45.683Z,14.94
2022-09-10T06:15:45.663Z,14.92
2022-09-10T06:16:45.706Z,14.96
2022-09-10T06:17:45.663Z,14.97
2022-09-10T06:18:45.623Z,15.02
2022-09-10T06:19:45.624Z,15.00
2022-09-10T06:20:45.604Z,15.02
2022-09-10T06:21:45.616Z,15.04
2022-09-10T06:22:45.584Z,15.10
2022-09-10T06:23:45.603Z,15.15
2022-09-10T06:24:45.565Z,15.18
2022-09-10T06:25:45.554Z,15.19
2022-09-10T06:26:45.543Z,15.22
2022-09-10T06:27:45.534Z,15.22
2022-09-10T06:28:45.566Z,15.22
2022-09-10T06:29:45.534Z,15.25
2022-09-10T06:30:45.531Z,15.28
2022-09-10T06:31:45.485Z,15.25
2022-09-10T06:32:45.475Z,15.27
2022-09-10T06:33:45.473Z,15.27
2022-09-10T06:34:45.445Z,15.27
2022-09-10T06:35:45.465Z,15.27
2022-09-10T06:36:45.425Z,15.27
2022-09-10T06:37:45.424Z,15.28
2022-09-10T06:38:45.406Z,15.35
2022-09-10T06:39:45.419Z,15.37
2022-09-10T06:40:45.405Z,15.42
2022-09-10T06:41:49.458Z,15.42
2022-09-10T06:42:45.366Z,15.49
2022-09-10T06:43:45.355Z,15.54
2022-09-10T06:44:45.336Z,15.58
2022-09-10T06:45:45.364Z,15.64
2022-09-10T06:48:32.712Z,15.65
2022-09-10T06:48:48.211Z,15.67
2022-09-10T06:49:45.294Z,15.75
2022-09-10T06:50:45.278Z,15.82
2022-09-10T06:51:45.286Z,15.92
2022-09-10T06:52:45.248Z,16.04
2022-09-10T06:53:45.246Z,16.02
2022-09-10T06:54:45.226Z,16.15
2022-09-10T06:55:45.216Z,16.23
2022-09-10T06:56:45.206Z,16.26
2022-09-10T06:57:45.215Z,16.26
2022-09-10T06:58:45.177Z,16.31
2022-09-10T06:59:45.166Z,16.33
2022-09-10T07:00:45.159Z,16.41
2022-09-10T07:01:45.147Z,16.49
2022-09-10T07:02:45.185Z,16.43
2022-09-10T07:03:45.127Z,16.49
2022-09-10T07:04:45.107Z,16.54
2022-09-10T07:05:45.106Z,16.49
2022-09-10T07:06:45.088Z,16.51
2022-09-10T07:07:45.077Z,16.57
2022-09-10T07:08:45.088Z,16.66
2022-09-10T07:09:45.066Z,17.08
2022-09-10T07:10:45.038Z,18.05
2022-09-10T07:11:45.038Z,18.28
2022-09-10T07:12:45.029Z,18.03
2022-09-10T07:13:45.019Z,17.89
2022-09-10T07:14:45.029Z,18.16
2022-09-10T07:15:45.020Z,18.89
2022-09-10T07:16:44.979Z,18.68
2022-09-10T07:17:44.970Z,18.52
2022-09-10T07:18:44.958Z,18.35
2022-09-10T07:19:44.972Z,18.11
2022-09-10T07:20:44.929Z,17.80
2022-09-10T07:21:44.928Z,17.64
2022-09-10T07:22:44.910Z,17.60
2022-09-10T07:23:44.909Z,17.56
2022-09-10T07:24:44.890Z,17.42
2022-09-10T07:25:44.930Z,17.56
2022-09-10T07:26:44.869Z,17.92
2022-09-10T07:27:44.860Z,18.28
2022-09-10T07:28:44.841Z,18.55
2022-09-10T07:29:44.839Z,19.04
2022-09-10T07:30:44.842Z,19.16
2022-09-10T07:31:45.814Z,19.58
2022-09-10T07:32:44.802Z,19.99
2022-09-10T07:33:44.791Z,20.59
2022-09-10T07:34:44.784Z,20.93
2022-09-10T07:35:44.810Z,20.96
2022-09-10T07:36:44.760Z,21.11
2022-09-10T07:37:44.770Z,20.96
2022-09-10T07:38:44.746Z,20.92
2022-09-10T07:39:44.776Z,20.85
2022-09-10T07:40:44.711Z,20.92
2022-09-10T07:41:44.701Z,20.74
2022-09-10T07:42:44.692Z,20.93
2022-09-10T07:43:44.693Z,21.12
2022-09-10T07:44:44.674Z,21.66
2022-09-10T07:45:44.721Z,22.48
2022-09-10T07:46:44.651Z,22.36
2022-09-10T07:47:44.646Z,21.96
2022-09-10T07:48:44.652Z,21.75
2022-09-10T07:49:44.613Z,21.51
2022-09-10T07:50:44.604Z,21.12
2022-09-10T07:51:44.604Z,20.77
2022-09-10T07:52:44.583Z,20.50
2022-09-10T07:53:50.569Z,20.16
2022-09-10T07:54:45.583Z,19.92
2022-09-10T07:55:44.636Z,19.69
2022-09-10T07:56:44.535Z,19.58
2022-09-10T07:57:44.515Z,19.51
2022-09-10T07:58:44.515Z,19.45
2022-09-10T07:59:44.505Z,19.19
2022-09-10T08:00:44.515Z,18.96
2022-09-10T08:01:44.523Z,18.78
2022-09-10T08:02:44.467Z,18.60
2022-09-10T08:03:44.457Z,18.50
2022-09-10T08:04:44.454Z,18.44
2022-09-10T08:05:44.437Z,18.41
2022-09-10T08:06:44.438Z,18.29
2022-09-10T08:07:44.408Z,18.18
2022-09-10T08:08:44.407Z,18.15
2022-09-10T08:09:44.387Z,18.08
2022-09-10T08:10:44.378Z,18.05
2022-09-10T08:11:44.388Z,18.16
2022-09-10T08:12:44.357Z,18.28
2022-09-10T08:13:44.337Z,18.31
2022-09-10T08:14:44.338Z,18.38
2022-09-10T08:15:44.360Z,18.62
2022-09-10T08:16:44.650Z,18.66
2022-09-10T08:17:44.319Z,18.65
2022-09-10T08:18:44.298Z,18.62
2022-09-10T08:19:44.277Z,18.49
2022-09-10T08:20:44.269Z,18.40
2022-09-10T08:21:44.250Z,18.38
2022-09-10T08:22:44.239Z,18.41
2022-09-10T08:23:44.240Z,18.40
2022-09-10T08:24:44.219Z,18.28
2022-09-10T08:25:44.212Z,18.23
2022-09-10T08:26:44.205Z,18.25
2022-09-10T08:27:44.181Z,18.34
2022-09-10T08:28:44.214Z,18.41
2022-09-10T08:29:44.162Z,18.37
2022-09-10T08:30:44.193Z,18.37
2022-09-10T08:31:44.141Z,18.33
2022-09-10T08:32:44.147Z,18.45
2022-09-10T08:33:44.111Z,18.49
2022-09-10T08:34:44.134Z,18.45
2022-09-10T08:35:44.091Z,18.50
2022-09-10T08:36:44.080Z,18.55
2022-09-10T08:37:44.061Z,18.52
2022-09-10T08:38:44.060Z,18.44
2022-09-10T08:39:44.075Z,18.55
2022-09-10T08:40:44.062Z,18.58
2022-09-10T08:41:44.022Z,18.62
2022-09-10T08:42:44.012Z,18.59
2022-09-10T08:43:44.022Z,18.53
2022-09-10T08:44:43.990Z,18.41
2022-09-10T08:45:44.082Z,18.37
2022-09-10T08:46:43.984Z,18.43
2022-09-10T08:47:43.952Z,18.58
2022-09-10T08:48:43.943Z,18.65
2022-09-10T08:49:43.923Z,18.60
2022-09-10T08:50:43.913Z,18.59
2022-09-10T08:51:43.934Z,18.53
2022-09-10T08:52:43.893Z,18.37
2022-09-10T08:53:43.883Z,18.19
2022-09-10T08:54:43.873Z,18.01
2022-09-10T08:55:48.299Z,17.94
2022-09-10T08:56:44.874Z,17.94
2022-09-10T08:57:43.847Z,17.94
2022-09-10T08:58:43.827Z,17.98
2022-09-10T08:59:43.815Z,18.00
2022-09-10T09:00:43.813Z,18.01
2022-09-10T09:01:43.832Z,17.92
2022-09-10T09:02:49.147Z,17.90
2022-09-10T09:03:44.765Z,17.85
2022-09-10T09:04:43.763Z,17.86
2022-09-10T09:05:43.758Z,17.72
2022-09-10T09:06:43.746Z,17.65
2022-09-10T09:07:43.726Z,17.64
2022-09-10T09:08:43.735Z,17.60
2022-09-10T09:09:43.706Z,17.57
2022-09-10T09:10:43.696Z,17.48
2022-09-10T09:11:43.688Z,17.42
2022-09-10T09:12:43.677Z,17.36
2022-09-10T09:13:43.676Z,17.34
2022-09-10T09:14:43.666Z,17.41
2022-09-10T09:15:43.687Z,17.38
2022-09-10T09:16:43.635Z,17.33
2022-09-10T09:17:43.622Z,17.34
2022-09-10T09:18:43.606Z,17.41
2022-09-10T09:19:43.617Z,17.44
2022-09-10T09:20:43.587Z,17.45
2022-09-10T09:21:43.576Z,17.45
2022-09-10T09:22:43.567Z,17.44
2022-09-10T09:24:02.827Z,17.45
2022-09-10T09:24:44.558Z,17.48
2022-09-10T09:25:45.278Z,17.39
2022-09-10T09:26:43.527Z,17.38
2022-09-10T09:27:43.506Z,17.29
2022-09-10T09:28:43.498Z,17.23
2022-09-10T09:29:43.488Z,17.24
2022-09-10T09:30:43.530Z,17.24
2022-09-10T09:31:43.468Z,17.23
2022-09-10T09:32:43.456Z,17.26
2022-09-10T09:33:43.438Z,17.30
2022-09-10T09:34:43.429Z,17.38
2022-09-10T09:35:43.419Z,17.39
2022-09-10T09:36:43.429Z,17.39
2022-09-10T09:37:43.405Z,17.42
2022-09-10T09:38:43.389Z,17.46
2022-09-10T09:39:43.455Z,17.48
2022-09-10T09:40:43.369Z,17.54
2022-09-10T09:41:43.359Z,17.64
2022-09-10T09:42:43.370Z,17.72
2022-09-10T09:43:43.329Z,17.80
2022-09-10T09:44:43.319Z,17.83
2022-09-10T09:45:43.356Z,17.92
2022-09-10T09:46:43.300Z,17.95
2022-09-10T09:47:43.290Z,18.03
2022-09-10T09:48:43.300Z,18.15
2022-09-10T09:49:43.268Z,18.20
2022-09-10T09:50:43.262Z,18.29
2022-09-10T09:51:43.252Z,18.34
2022-09-10T09:52:43.242Z,18.41
2022-09-10T09:53:47.709Z,18.45
2022-09-10T09:55:12.641Z,18.44
2022-09-10T09:55:44.209Z,18.52
2022-09-10T09:56:43.191Z,18.58
2022-09-10T09:57:43.309Z,18.70
2022-09-10T09:58:43.171Z,18.78
2022-09-10T09:59:43.161Z,18.93
2022-09-10T10:00:43.170Z,19.09
2022-09-10T10:01:43.185Z,19.29
2022-09-10T10:02:43.122Z,19.55
2022-09-10T10:03:43.117Z,19.71
2022-09-10T10:04:43.102Z,19.74
2022-09-10T10:05:43.091Z,19.82
2022-09-10T10:06:43.114Z,19.88
2022-09-10T10:07:43.063Z,20.02
2022-09-10T10:08:43.053Z,20.13
2022-09-10T10:09:43.044Z,20.14
2022-09-10T10:10:43.033Z,20.24
2022-09-10T10:11:43.023Z,20.34
2022-09-10T10:12:43.056Z,20.25
2022-09-10T10:13:42.994Z,20.03
2022-09-10T10:14:42.991Z,19.81
2022-09-10T10:15:43.032Z,19.79
2022-09-10T10:16:42.967Z,19.88
2022-09-10T10:17:42.952Z,19.92
2022-09-10T10:18:42.963Z,20.09
2022-09-10T10:19:42.925Z,20.21
2022-09-10T10:20:42.915Z,20.26
2022-09-10T10:21:42.905Z,20.10
2022-09-10T10:22:42.897Z,19.94
2022-09-10T10:23:42.915Z,19.81
2022-09-10T10:24:42.876Z,19.62
2022-09-10T10:25:42.865Z,19.41
2022-09-10T10:26:42.855Z,19.27
2022-09-10T10:27:42.836Z,19.22
2022-09-10T10:28:42.836Z,19.18
2022-09-10T10:29:42.847Z,19.16
2022-09-10T10:30:42.857Z,19.26
2022-09-10T10:31:42.796Z,19.34
2022-09-10T10:32:42.776Z,19.45
2022-09-10T10:33:42.770Z,19.52
2022-09-10T10:34:42.757Z,19.66
2022-09-10T10:35:42.788Z,19.84
2022-09-10T10:36:42.737Z,19.96
2022-09-10T10:37:42.738Z,20.06
2022-09-10T10:38:42.716Z,20.02
2022-09-10T10:39:42.786Z,19.99
2022-09-10T10:40:42.721Z,19.95
2022-09-10T10:41:42.705Z,19.92
2022-09-10T10:42:42.668Z,19.82
2022-09-10T10:43:42.661Z,19.76
2022-09-10T10:44:42.647Z,19.74
2022-09-10T10:45:42.649Z,19.59
2022-09-10T10:46:42.673Z,19.41
2022-09-10T10:47:42.641Z,19.41
2022-09-10T10:48:42.610Z,19.41
2022-09-10T10:49:42.601Z,19.49
2022-09-10T10:50:42.591Z,19.66
2022-09-10T10:51:42.571Z,19.84
2022-09-10T10:52:42.559Z,20.02
2022-09-10T10:53:42.569Z,20.19
2022-09-10T10:54:42.548Z,20.25
2022-09-10T10:55:42.589Z,20.16
2022-09-10T10:56:42.537Z,20.26
2022-09-10T10:57:42.501Z,20.52
2022-09-10T10:58:42.502Z,20.80
2022-09-10T10:59:42.560Z,21.07
2022-09-10T11:00:42.482Z,21.21
2022-09-10T11:01:42.538Z,21.29
2022-09-10T11:02:42.488Z,21.37
2022-09-10T11:03:42.442Z,21.45
2022-09-10T11:04:42.472Z,21.36
2022-09-10T11:05:42.432Z,21.14
2022-09-10T11:06:42.402Z,20.72
2022-09-10T11:07:42.421Z,20.51
2022-09-10T11:08:42.393Z,20.55
2022-09-10T11:09:42.404Z,20.62
2022-09-10T11:10:42.883Z,20.66
2022-09-10T11:11:42.352Z,20.70
2022-09-10T11:12:42.346Z,20.78
2022-09-10T11:13:42.333Z,20.78
2022-09-10T11:14:42.317Z,20.60
2022-09-10T11:15:42.385Z,20.58
2022-09-10T11:16:42.317Z,20.37
2022-09-10T11:17:42.295Z,20.31
2022-09-10T11:18:42.295Z,20.16
2022-09-10T11:19:42.277Z,20.11
2022-09-10T11:20:42.271Z,20.07
2022-09-10T11:21:42.266Z,20.03
2022-09-10T11:22:42.256Z,20.04
2022-09-10T11:23:42.217Z,19.99
2022-09-10T11:24:42.229Z,19.99
2022-09-10T11:25:42.206Z,20.06
2022-09-10T11:26:42.227Z,20.04
2022-09-10T11:27:42.196Z,20.07
2022-09-10T11:28:42.197Z,20.14
2022-09-10T11:29:42.169Z,20.18
2022-09-10T11:30:42.195Z,20.32
2022-09-10T11:31:42.127Z,20.58
2022-09-10T11:32:42.148Z,20.67
2022-09-10T11:33:42.107Z,20.82
2022-09-10T11:34:42.087Z,20.84
2022-09-10T11:35:42.120Z,20.92
2022-09-10T11:36:42.087Z,21.07
2022-09-10T11:37:42.604Z,21.21
2022-09-10T11:38:42.068Z,21.37
2022-09-10T11:39:42.097Z,21.33
2022-09-10T11:40:42.028Z,21.37
2022-09-10T11:41:42.045Z,21.06
2022-09-10T11:42:42.028Z,21.00
2022-09-10T11:43:42.017Z,21.15
2022-09-10T11:44:41.993Z,21.36
2022-09-10T11:45:41.988Z,21.51
2022-09-10T11:46:41.959Z,21.58
2022-09-10T11:47:41.960Z,21.60
2022-09-10T11:48:41.951Z,21.70
2022-09-10T11:49:41.948Z,21.80
2022-09-10T11:50:41.921Z,22.00
2022-09-10T11:51:41.932Z,22.28
2022-09-10T11:52:41.900Z,22.44
2022-09-10T11:53:41.890Z,22.50
2022-09-10T11:54:41.916Z,22.45
2022-09-10T11:55:41.871Z,22.45
2022-09-10T11:56:41.856Z,22.15
2022-09-10T11:57:41.849Z,22.13
2022-09-10T11:58:41.843Z,22.00
2022-09-10T11:59:41.819Z,21.85
2022-09-10T12:00:41.886Z,21.95
2022-09-10T12:01:41.820Z,21.99
2022-09-10T12:02:41.782Z,21.93
2022-09-10T12:03:41.967Z,21.98
2022-09-10T12:04:45.661Z,22.06
2022-09-10T12:05:42.774Z,22.07
2022-09-10T12:06:41.736Z,22.02
2022-09-10T12:07:41.733Z,21.99
2022-09-10T12:08:41.715Z,21.85
2022-09-10T12:09:41.704Z,21.85
2022-09-10T12:10:41.694Z,21.73
2022-09-10T12:11:41.713Z,21.60
2022-09-10T12:12:41.665Z,21.36
2022-09-10T12:13:41.684Z,21.32
2022-09-10T12:14:41.659Z,21.29
2022-09-10T12:15:41.679Z,21.35
2022-09-10T12:16:41.636Z,21.42
2022-09-10T12:17:41.690Z,21.48
2022-09-10T12:18:42.779Z,21.48
2022-09-10T12:19:41.596Z,21.45
2022-09-10T12:20:41.593Z,21.45
2022-09-10T12:21:41.596Z,21.50
2022-09-10T12:22:41.578Z,21.52
2022-09-10T12:23:41.798Z,21.55
2022-09-10T12:24:41.536Z,21.54
2022-09-10T12:25:41.558Z,21.40
2022-09-10T12:26:41.519Z,21.35
2022-09-10T12:27:41.507Z,21.37
2022-09-10T12:28:41.507Z,21.50
2022-09-10T12:29:41.486Z,21.58
2022-09-10T12:30:41.476Z,21.64
2022-09-10T12:31:41.466Z,21.75
2022-09-10T12:32:41.449Z,21.66
2022-09-10T12:33:41.512Z,21.73
2022-09-10T12:34:41.428Z,21.88
2022-09-10T12:35:41.426Z,21.96
2022-09-10T12:36:41.450Z,21.98
2022-09-10T12:37:41.413Z,21.98
2022-09-10T12:38:41.380Z,21.99
2022-09-10T12:39:41.511Z,22.02
2022-09-10T12:40:41.406Z,22.02
2022-09-10T12:41:41.350Z,22.02
2022-09-10T12:42:41.340Z,22.08
2022-09-10T12:43:41.401Z,22.10
2022-09-10T12:44:41.318Z,22.04
2022-09-10T12:45:41.338Z,22.04
2022-09-10T12:46:44.859Z,21.85
2022-09-10T12:47:41.281Z,21.76
2022-09-10T12:48:41.389Z,21.69
2022-09-10T12:49:41.261Z,21.66
2022-09-10T12:50:41.251Z,21.62
2022-09-10T12:51:41.260Z,21.60
2022-09-10T12:52:41.223Z,21.52
2022-09-10T12:53:41.313Z,21.39
2022-09-10T12:54:41.202Z,21.29